LEBL/BCN METAR and TAF weather

Enter ICAO airport designator
Station Type Date Time Source
LEBL METAR 2022/12/02 23:00 UTC NOAA

LEBL 022300Z 32011KT 9999 FEW040 06/02 Q1011 NOSIG


Station Type Date Time Source
LEBL Decoded METAR 2022/12/02 23:00 UTC NOAA

Barcelona / Aeropuerto, Spain (LEBL) 41-17N 002-04E 6M
Dec 02, 2022 - 06:00 PM EST / 2022.12.02 2300 UTC
Wind: from the NW (320 degrees) at 13 MPH (11 KT):0
Visibility: greater than 7 mile(s):0
Sky conditions: mostly clear
Temperature: 42 F (6 C)
Dew Point: 35 F (2 C)
Relative Humidity: 75%
Pressure (altimeter): 29.85 in. Hg (1011 hPa)
ob: LEBL 022300Z 32011KT 9999 FEW040 06/02 Q1011 NOSIG
cycle: 23

Station Type Date Time Source
LEBL TAF 2022/12/02 19:12 UTC NOAA

TAF
AMD LEBL 021907Z 0219/0318 34009KT 9999 FEW030 TX16/0312Z TN06/0306Z PROB40
TEMPO 0306/0308 34015G25KT
BECMG 0312/0314 22008KT

Example: see airport list